XBKSW MMCZ-TNCM
Flight info
| Callsign | XBKSW |
|---|---|
| Flight time | N/A |
| Altitude | 37000 |
| Route | AVSEB2B AVSEB UL577 ITMAD/N0319F390 UL577 CDO UT15 MELLA G633 MAZ RTE12 JOSHE DCT STIIV L577 GOUDA |
| Aircraft | P180/L-SBDFGM3RWXY/LB1 |
Departure
| Time | 2026-04-22 22:30 |
|---|---|
| Airport | Cozumel International Airport (MMCZ) |
Arrival
| Time | N/A |
|---|---|
| Airport | Princess Juliana International Airport (TNCM) |
| Time | Latitude | Longitude | Altitude | Speed | Heading |
|---|---|---|---|---|---|
| 2026-04-22 22:09 | 20.51280 | -86.93141 | 19 ft | 0 kts | 117° |
| 2026-04-22 22:22 | 20.51278 | -86.93137 | 19 ft | 6 kts | 117° |
| 2026-04-22 22:22 | 20.51306 | -86.93090 | 17 ft | 7 kts | 98° |
| 2026-04-22 22:22 | 20.51334 | -86.93041 | 18 ft | 11 kts | 22° |
| 2026-04-22 22:22 | 20.51424 | -86.93049 | 18 ft | 16 kts | 321° |
| 2026-04-22 22:23 | 20.51519 | -86.93117 | 18 ft | 10 kts | 325° |
| 2026-04-22 22:23 | 20.51596 | -86.93174 | 15 ft | 17 kts | 326° |
| 2026-04-22 22:23 | 20.51713 | -86.93191 | 12 ft | 16 kts | 33° |
| 2026-04-22 22:23 | 20.51787 | -86.93232 | 12 ft | 16 kts | 298° |
| 2026-04-22 22:24 | 20.51841 | -86.93353 | 14 ft | 20 kts | 295° |
| 2026-04-22 22:24 | 20.51901 | -86.93485 | 16 ft | 15 kts | 297° |
| 2026-04-22 22:24 | 20.51949 | -86.93591 | 19 ft | 17 kts | 296° |
| 2026-04-22 22:24 | 20.52005 | -86.93717 | 20 ft | 19 kts | 296° |
| 2026-04-22 22:25 | 20.52045 | -86.93819 | 20 ft | 11 kts | 264° |
| 2026-04-22 22:25 | 20.52037 | -86.93853 | 20 ft | 0 kts | 248° |
| 2026-04-22 22:27 | 20.52033 | -86.93865 | 19 ft | 7 kts | 248° |
| 2026-04-22 22:27 | 20.51986 | -86.93938 | 18 ft | 10 kts | 158° |
| 2026-04-22 22:27 | 20.51974 | -86.93919 | 18 ft | 0 kts | 116° |
| 2026-04-22 22:28 | 20.51947 | -86.93858 | 17 ft | 39 kts | 115° |
| 2026-04-22 22:29 | 20.51731 | -86.93378 | 16 ft | 100 kts | 116° |
| 2026-04-22 22:29 | 20.51378 | -86.92588 | 36 ft | 131 kts | 115° |
| 2026-04-22 22:29 | 20.50972 | -86.91661 | 251 ft | 148 kts | 115° |
| 2026-04-22 22:29 | 20.50558 | -86.90625 | 592 ft | 153 kts | 113° |
| 2026-04-22 22:30 | 20.50116 | -86.89555 | 1022 ft | 160 kts | 116° |
| 2026-04-22 22:30 | 20.49667 | -86.88499 | 1820 ft | 157 kts | 114° |
| 2026-04-22 22:30 | 20.49236 | -86.87428 | 2521 ft | 157 kts | 114° |
| 2026-04-22 22:30 | 20.48794 | -86.86360 | 3214 ft | 157 kts | 113° |
| 2026-04-22 22:31 | 20.48340 | -86.85284 | 3881 ft | 161 kts | 114° |
| 2026-04-22 22:31 | 20.47875 | -86.84193 | 4609 ft | 162 kts | 114° |
| 2026-04-22 22:31 | 20.47400 | -86.83081 | 5242 ft | 167 kts | 114° |
| 2026-04-22 22:31 | 20.46917 | -86.81942 | 5906 ft | 170 kts | 115° |
| 2026-04-22 22:32 | 20.46530 | -86.80745 | 6561 ft | 174 kts | 98° |
| 2026-04-22 22:32 | 20.46369 | -86.79456 | 7191 ft | 177 kts | 100° |
| 2026-04-22 22:32 | 20.46135 | -86.78155 | 7813 ft | 179 kts | 101° |
| 2026-04-22 22:32 | 20.45925 | -86.76832 | 8380 ft | 182 kts | 99° |
| 2026-04-22 22:33 | 20.45710 | -86.75498 | 8944 ft | 184 kts | 100° |
| 2026-04-22 22:33 | 20.45490 | -86.74142 | 9480 ft | 186 kts | 99° |
| 2026-04-22 22:33 | 20.45264 | -86.72774 | 9989 ft | 188 kts | 100° |
| 2026-04-22 22:33 | 20.45036 | -86.71395 | 10473 ft | 190 kts | 99° |
| 2026-04-22 22:34 | 20.44812 | -86.70003 | 10932 ft | 191 kts | 99° |
| 2026-04-22 22:34 | 20.44585 | -86.68598 | 11411 ft | 193 kts | 99° |
| 2026-04-22 22:34 | 20.44354 | -86.67182 | 11857 ft | 195 kts | 99° |
| 2026-04-22 22:34 | 20.44120 | -86.65747 | 12284 ft | 197 kts | 99° |
| 2026-04-22 22:35 | 20.43878 | -86.64302 | 12707 ft | 200 kts | 99° |
| 2026-04-22 22:35 | 20.43644 | -86.62836 | 13130 ft | 202 kts | 99° |
| 2026-04-22 22:35 | 20.43406 | -86.61349 | 13535 ft | 204 kts | 99° |
| 2026-04-22 22:35 | 20.43159 | -86.59846 | 13913 ft | 207 kts | 99° |
| 2026-04-22 22:36 | 20.42912 | -86.58333 | 14282 ft | 209 kts | 99° |
| 2026-04-22 22:36 | 20.42664 | -86.56803 | 14646 ft | 211 kts | 99° |
| 2026-04-22 22:36 | 20.42408 | -86.55247 | 14993 ft | 213 kts | 99° |
| 2026-04-22 22:36 | 20.42154 | -86.53685 | 15346 ft | 215 kts | 99° |
| 2026-04-22 22:37 | 20.41895 | -86.52105 | 15668 ft | 217 kts | 99° |
| 2026-04-22 22:37 | 20.41635 | -86.50509 | 16011 ft | 219 kts | 99° |
| 2026-04-22 22:37 | 20.41371 | -86.48901 | 16342 ft | 221 kts | 99° |
| 2026-04-22 22:37 | 20.41108 | -86.47283 | 16653 ft | 223 kts | 99° |
| 2026-04-22 22:38 | 20.40837 | -86.45648 | 16948 ft | 225 kts | 99° |
| 2026-04-22 22:38 | 20.40567 | -86.44001 | 17232 ft | 226 kts | 99° |
| 2026-04-22 22:38 | 20.40296 | -86.42340 | 17513 ft | 228 kts | 99° |
| 2026-04-22 22:38 | 20.40023 | -86.40668 | 17795 ft | 230 kts | 99° |
| 2026-04-22 22:39 | 20.39744 | -86.38985 | 18066 ft | 232 kts | 99° |
| 2026-04-22 22:39 | 20.39453 | -86.37286 | 18323 ft | 233 kts | 100° |
| 2026-04-22 22:39 | 20.39172 | -86.35578 | 18625 ft | 235 kts | 99° |
| 2026-04-22 22:39 | 20.38895 | -86.33858 | 18985 ft | 236 kts | 99° |
| 2026-04-22 22:40 | 20.38616 | -86.32127 | 19315 ft | 238 kts | 99° |
| 2026-04-22 22:40 | 20.38326 | -86.30378 | 19660 ft | 240 kts | 100° |
| 2026-04-22 22:40 | 20.38037 | -86.28623 | 19982 ft | 242 kts | 100° |
| 2026-04-22 22:40 | 20.37745 | -86.26851 | 20308 ft | 243 kts | 100° |
| 2026-04-22 22:41 | 20.37456 | -86.25072 | 20650 ft | 245 kts | 100° |
| 2026-04-22 22:41 | 20.37158 | -86.23285 | 20991 ft | 246 kts | 100° |
| 2026-04-22 22:41 | 20.36771 | -86.21499 | 21311 ft | 248 kts | 105° |
| 2026-04-22 22:41 | 20.36416 | -86.19695 | 21652 ft | 249 kts | 100° |
| 2026-04-22 22:42 | 20.36104 | -86.17873 | 21980 ft | 252 kts | 102° |
| 2026-04-22 22:42 | 20.35732 | -86.16039 | 22317 ft | 253 kts | 103° |
| 2026-04-22 22:42 | 20.35348 | -86.14199 | 22644 ft | 255 kts | 103° |
| 2026-04-22 22:42 | 20.34972 | -86.12344 | 22998 ft | 257 kts | 103° |
| 2026-04-22 22:43 | 20.34597 | -86.10480 | 23349 ft | 259 kts | 103° |
| 2026-04-22 22:43 | 20.34216 | -86.08598 | 23709 ft | 261 kts | 103° |
| 2026-04-22 22:43 | 20.33832 | -86.06706 | 24053 ft | 263 kts | 103° |
| 2026-04-22 22:43 | 20.33444 | -86.04795 | 24399 ft | 264 kts | 103° |
| 2026-04-22 22:44 | 20.33055 | -86.02879 | 24745 ft | 266 kts | 103° |
| 2026-04-22 22:44 | 20.32661 | -86.00943 | 25097 ft | 268 kts | 103° |
| 2026-04-22 22:44 | 20.32266 | -85.98997 | 25434 ft | 270 kts | 103° |
| 2026-04-22 22:44 | 20.31866 | -85.97033 | 25774 ft | 272 kts | 104° |
| 2026-04-22 22:45 | 20.31459 | -85.95068 | 26086 ft | 272 kts | 104° |
| 2026-04-22 22:45 | 20.31061 | -85.93082 | 26412 ft | 275 kts | 103° |
| 2026-04-22 22:45 | 20.30656 | -85.91091 | 26733 ft | 277 kts | 104° |
| 2026-04-22 22:45 | 20.30243 | -85.89071 | 27049 ft | 279 kts | 104° |
| 2026-04-22 22:46 | 20.29831 | -85.87049 | 27390 ft | 280 kts | 104° |
| 2026-04-22 22:46 | 20.29417 | -85.85019 | 27704 ft | 282 kts | 104° |
| 2026-04-22 22:46 | 20.28999 | -85.82972 | 28025 ft | 284 kts | 104° |
| 2026-04-22 22:46 | 20.28576 | -85.80905 | 28338 ft | 285 kts | 104° |
| 2026-04-22 22:47 | 20.28154 | -85.78840 | 28584 ft | 287 kts | 105° |
| 2026-04-22 22:47 | 20.27726 | -85.76751 | 28866 ft | 289 kts | 105° |
| 2026-04-22 22:47 | 20.27294 | -85.74638 | 28965 ft | 298 kts | 105° |
| 2026-04-22 22:47 | 20.26843 | -85.72446 | 28980 ft | 309 kts | 105° |
| 2026-04-22 22:48 | 20.26377 | -85.70176 | 29107 ft | 313 kts | 105° |
| 2026-04-22 22:48 | 20.25915 | -85.67913 | 29329 ft | 317 kts | 105° |
| 2026-04-22 22:48 | 20.25453 | -85.65665 | 29981 ft | 299 kts | 105° |
| 2026-04-22 22:48 | 20.25023 | -85.63551 | 30468 ft | 291 kts | 105° |
| 2026-04-22 22:49 | 20.24587 | -85.61438 | 30678 ft | 293 kts | 106° |
| 2026-04-22 22:49 | 20.24148 | -85.59319 | 30921 ft | 293 kts | 105° |
| 2026-04-22 22:49 | 20.23712 | -85.57199 | 31169 ft | 293 kts | 105° |
| 2026-04-22 22:49 | 20.23274 | -85.55074 | 31408 ft | 293 kts | 106° |
| 2026-04-22 22:50 | 20.22837 | -85.52950 | 31633 ft | 294 kts | 106° |
| 2026-04-22 22:50 | 20.22399 | -85.50826 | 31858 ft | 294 kts | 106° |
| 2026-04-22 22:50 | 20.21959 | -85.48698 | 32083 ft | 294 kts | 106° |
| 2026-04-22 22:50 | 20.21520 | -85.46570 | 32293 ft | 295 kts | 106° |
| 2026-04-22 22:51 | 20.21079 | -85.44438 | 32498 ft | 295 kts | 106° |
| 2026-04-22 22:51 | 20.20636 | -85.42297 | 32694 ft | 296 kts | 106° |
| 2026-04-22 22:51 | 20.20195 | -85.40163 | 32920 ft | 296 kts | 106° |
| 2026-04-22 22:51 | 20.19752 | -85.38021 | 33120 ft | 296 kts | 107° |
| 2026-04-22 22:52 | 20.19310 | -85.35884 | 33316 ft | 296 kts | 107° |
| 2026-04-22 22:52 | 20.18862 | -85.33738 | 33526 ft | 298 kts | 107° |
| 2026-04-22 22:52 | 20.18408 | -85.31597 | 33821 ft | 297 kts | 107° |
| 2026-04-22 22:52 | 20.17942 | -85.29451 | 34100 ft | 297 kts | 108° |
| 2026-04-22 22:53 | 20.17479 | -85.27306 | 34365 ft | 298 kts | 107° |
| 2026-04-22 22:53 | 20.17022 | -85.25162 | 34628 ft | 298 kts | 107° |
| 2026-04-22 22:53 | 20.16560 | -85.23011 | 34874 ft | 298 kts | 107° |
| 2026-04-22 22:53 | 20.16095 | -85.20857 | 35116 ft | 299 kts | 107° |
| 2026-04-22 22:54 | 20.15630 | -85.18700 | 35327 ft | 299 kts | 107° |
| 2026-04-22 22:54 | 20.15165 | -85.16546 | 35541 ft | 299 kts | 107° |
| 2026-04-22 22:54 | 20.14702 | -85.14384 | 35745 ft | 300 kts | 107° |
| 2026-04-22 22:54 | 20.14242 | -85.12226 | 35949 ft | 299 kts | 107° |
| 2026-04-22 22:55 | 20.13773 | -85.10066 | 36146 ft | 299 kts | 108° |
| 2026-04-22 22:55 | 20.13304 | -85.07902 | 36327 ft | 300 kts | 108° |
| 2026-04-22 22:55 | 20.12372 | -85.03574 | 36679 ft | 301 kts | 107° |
| 2026-04-22 22:56 | 20.11901 | -85.01406 | 36856 ft | 301 kts | 107° |
| 2026-04-22 22:56 | 20.11435 | -84.99236 | 37004 ft | 303 kts | 107° |
| 2026-04-22 22:56 | 20.10461 | -84.94772 | 37017 ft | 317 kts | 107° |
| 2026-04-22 22:57 | 20.09456 | -84.90111 | 37017 ft | 330 kts | 107° |
| 2026-04-22 22:57 | 20.08584 | -84.86107 | 37019 ft | 340 kts | 107° |
| 2026-04-22 22:58 | 20.07325 | -84.80303 | 37019 ft | 352 kts | 107° |
| 2026-04-22 22:58 | 20.06388 | -84.76003 | 37020 ft | 360 kts | 107° |
| 2026-04-22 22:59 | 20.05254 | -84.70746 | 37017 ft | 369 kts | 107° |
| 2026-04-22 22:59 | 20.04055 | -84.65351 | 37016 ft | 380 kts | 106° |
| 2026-04-22 23:00 | 20.02857 | -84.59805 | 37017 ft | 389 kts | 106° |
| 2026-04-22 23:00 | 20.01608 | -84.54143 | 37016 ft | 397 kts | 106° |
| 2026-04-22 23:01 | 20.00350 | -84.48376 | 37016 ft | 403 kts | 106° |
| 2026-04-22 23:01 | 19.99061 | -84.42534 | 37017 ft | 408 kts | 106° |
| 2026-04-22 23:02 | 19.97763 | -84.36621 | 37018 ft | 412 kts | 106° |
| 2026-04-22 23:02 | 19.96450 | -84.30668 | 37016 ft | 415 kts | 106° |
| 2026-04-22 23:03 | 19.95128 | -84.24678 | 37019 ft | 417 kts | 106° |
| 2026-04-22 23:03 | 19.93794 | -84.18659 | 37016 ft | 419 kts | 106° |
| 2026-04-22 23:04 | 19.92457 | -84.12613 | 37017 ft | 421 kts | 106° |
| 2026-04-22 23:04 | 19.91111 | -84.06557 | 37017 ft | 422 kts | 106° |
| 2026-04-22 23:05 | 19.89762 | -84.00486 | 37018 ft | 422 kts | 106° |
| 2026-04-22 23:05 | 19.88413 | -83.94417 | 37018 ft | 423 kts | 106° |
| 2026-04-22 23:06 | 19.87052 | -83.88334 | 37016 ft | 423 kts | 106° |
| 2026-04-22 23:06 | 19.85696 | -83.82258 | 37017 ft | 423 kts | 106° |
| 2026-04-22 23:07 | 19.84353 | -83.76251 | 37015 ft | 423 kts | 106° |
| 2026-04-22 23:07 | 19.82981 | -83.70168 | 37018 ft | 424 kts | 107° |
| 2026-04-22 23:08 | 19.81611 | -83.64085 | 37018 ft | 424 kts | 106° |
| 2026-04-22 23:08 | 19.80258 | -83.57991 | 37017 ft | 424 kts | 106° |
| 2026-04-22 23:09 | 19.78874 | -83.51904 | 37017 ft | 424 kts | 106° |
| 2026-04-22 23:09 | 19.77507 | -83.45822 | 37017 ft | 423 kts | 107° |
| 2026-04-22 23:10 | 19.76131 | -83.39743 | 37017 ft | 423 kts | 106° |
| 2026-04-22 23:10 | 19.74753 | -83.33669 | 37017 ft | 423 kts | 107° |
| 2026-04-22 23:11 | 19.73381 | -83.27603 | 37017 ft | 423 kts | 107° |
| 2026-04-22 23:11 | 19.71999 | -83.21539 | 37017 ft | 423 kts | 107° |
| 2026-04-22 23:12 | 19.70622 | -83.15479 | 37006 ft | 422 kts | 107° |
| 2026-04-22 23:12 | 19.69243 | -83.09426 | 37005 ft | 422 kts | 107° |
| 2026-04-22 23:13 | 19.67860 | -83.03381 | 37006 ft | 421 kts | 107° |
| 2026-04-22 23:13 | 19.66482 | -82.97341 | 37005 ft | 421 kts | 106° |
| 2026-04-22 23:14 | 19.65098 | -82.91311 | 37005 ft | 421 kts | 106° |
| 2026-04-22 23:14 | 19.63714 | -82.85273 | 37005 ft | 421 kts | 107° |
| 2026-04-22 23:15 | 19.62322 | -82.79246 | 37005 ft | 421 kts | 106° |
| 2026-04-22 23:15 | 19.60937 | -82.73209 | 37005 ft | 421 kts | 107° |
| 2026-04-22 23:16 | 19.59544 | -82.67181 | 37005 ft | 421 kts | 107° |
| 2026-04-22 23:16 | 19.58153 | -82.61148 | 37006 ft | 421 kts | 107° |
| 2026-04-22 23:17 | 19.56759 | -82.55130 | 37006 ft | 421 kts | 107° |
| 2026-04-22 23:17 | 19.55365 | -82.49109 | 37006 ft | 421 kts | 107° |
| 2026-04-22 23:18 | 19.53964 | -82.43079 | 37006 ft | 421 kts | 107° |
| 2026-04-22 23:18 | 19.52565 | -82.37053 | 37006 ft | 421 kts | 107° |
| 2026-04-22 23:19 | 19.51162 | -82.31029 | 37006 ft | 421 kts | 107° |
| 2026-04-22 23:19 | 19.49759 | -82.25011 | 37006 ft | 421 kts | 107° |
| 2026-04-22 23:20 | 19.48351 | -82.18988 | 37006 ft | 421 kts | 107° |
| 2026-04-22 23:20 | 19.46944 | -82.12971 | 37006 ft | 421 kts | 107° |
| 2026-04-22 23:21 | 19.45535 | -82.06957 | 37007 ft | 421 kts | 107° |
| 2026-04-22 23:21 | 19.44473 | -82.00855 | 37004 ft | 422 kts | 100° |
| 2026-04-22 23:22 | 19.43585 | -81.94744 | 37005 ft | 422 kts | 101° |
| 2026-04-22 23:22 | 19.42713 | -81.88553 | 37004 ft | 422 kts | 101° |
| 2026-04-22 23:23 | 19.41870 | -81.82436 | 37004 ft | 422 kts | 101° |
| 2026-04-22 23:23 | 19.40940 | -81.76254 | 37003 ft | 422 kts | 101° |
| 2026-04-22 23:24 | 19.40083 | -81.70107 | 37002 ft | 422 kts | 101° |
| 2026-04-22 23:24 | 19.39189 | -81.63963 | 37003 ft | 422 kts | 101° |
| 2026-04-22 23:25 | 19.38309 | -81.57819 | 36996 ft | 422 kts | 101° |
| 2026-04-22 23:25 | 19.37419 | -81.51669 | 36997 ft | 422 kts | 101° |
| 2026-04-22 23:26 | 19.36488 | -81.45531 | 36997 ft | 422 kts | 101° |
| 2026-04-22 23:26 | 19.35659 | -81.39379 | 36998 ft | 422 kts | 101° |
| 2026-04-22 23:27 | 19.34737 | -81.33245 | 36998 ft | 422 kts | 101° |
| 2026-04-22 23:27 | 19.33857 | -81.27105 | 36998 ft | 422 kts | 101° |
| 2026-04-22 23:28 | 19.32954 | -81.20970 | 36998 ft | 421 kts | 101° |
| 2026-04-22 23:28 | 19.32059 | -81.14841 | 36998 ft | 422 kts | 101° |
| 2026-04-22 23:29 | 19.31158 | -81.08706 | 36998 ft | 421 kts | 101° |
| 2026-04-22 23:29 | 19.30256 | -81.02578 | 36998 ft | 422 kts | 101° |
| 2026-04-22 23:30 | 19.29420 | -80.96523 | 36990 ft | 421 kts | 101° |
| 2026-04-22 23:30 | 19.28436 | -80.90421 | 36990 ft | 421 kts | 101° |
| 2026-04-22 23:31 | 19.27560 | -80.84289 | 36996 ft | 421 kts | 102° |
| 2026-04-22 23:31 | 19.26624 | -80.78177 | 37009 ft | 421 kts | 101° |
| 2026-04-22 23:32 | 19.25749 | -80.72099 | 37009 ft | 420 kts | 101° |
| 2026-04-22 23:32 | 19.24816 | -80.65949 | 37007 ft | 421 kts | 101° |
| 2026-04-22 23:33 | 19.23916 | -80.59874 | 37007 ft | 421 kts | 101° |
| 2026-04-22 23:33 | 19.22995 | -80.53763 | 37006 ft | 421 kts | 101° |
| 2026-04-22 23:34 | 19.22077 | -80.47642 | 37006 ft | 421 kts | 101° |
| 2026-04-22 23:34 | 19.21154 | -80.41519 | 37007 ft | 421 kts | 101° |
| 2026-04-22 23:35 | 19.20231 | -80.35403 | 37007 ft | 421 kts | 101° |
| 2026-04-22 23:35 | 19.19305 | -80.29283 | 37007 ft | 421 kts | 101° |
| 2026-04-22 23:36 | 19.18377 | -80.23165 | 37007 ft | 421 kts | 101° |
| 2026-04-22 23:36 | 19.17445 | -80.17042 | 37008 ft | 422 kts | 101° |
| 2026-04-22 23:37 | 19.16513 | -80.10914 | 37008 ft | 422 kts | 101° |
| 2026-04-22 23:37 | 19.15576 | -80.04786 | 37009 ft | 422 kts | 101° |
| 2026-04-22 23:38 | 19.14641 | -79.98671 | 37009 ft | 422 kts | 102° |
| 2026-04-22 23:38 | 19.13699 | -79.92537 | 37009 ft | 422 kts | 101° |
| 2026-04-22 23:39 | 19.12758 | -79.86411 | 37009 ft | 422 kts | 102° |
| 2026-04-22 23:39 | 19.11973 | -79.81321 | 37009 ft | 422 kts | 102° |
| 2026-04-22 23:40 | 19.11029 | -79.75204 | 37009 ft | 422 kts | 102° |
| 2026-04-22 23:40 | 19.10082 | -79.69085 | 37009 ft | 422 kts | 102° |
| 2026-04-22 23:41 | 19.09132 | -79.62963 | 37010 ft | 422 kts | 102° |
| 2026-04-22 23:41 | 19.08182 | -79.56852 | 37010 ft | 421 kts | 102° |
| 2026-04-22 23:42 | 19.07231 | -79.50740 | 37010 ft | 421 kts | 102° |
| 2026-04-22 23:42 | 19.06278 | -79.44639 | 37011 ft | 421 kts | 102° |
| 2026-04-22 23:43 | 19.05322 | -79.38534 | 37011 ft | 421 kts | 102° |
| 2026-04-22 23:43 | 19.04365 | -79.32427 | 37011 ft | 421 kts | 102° |
| 2026-04-22 23:44 | 19.03404 | -79.26324 | 37011 ft | 420 kts | 102° |
| 2026-04-22 23:44 | 19.02457 | -79.20305 | 37011 ft | 420 kts | 102° |
| 2026-04-22 23:45 | 19.01496 | -79.14218 | 37011 ft | 420 kts | 102° |
| 2026-04-22 23:45 | 19.00555 | -79.08119 | 37011 ft | 420 kts | 102° |
| 2026-04-22 23:46 | 18.99557 | -79.02039 | 37011 ft | 420 kts | 102° |
| 2026-04-22 23:46 | 18.98602 | -78.95936 | 37012 ft | 421 kts | 102° |
| 2026-04-22 23:47 | 18.97626 | -78.89847 | 37012 ft | 420 kts | 102° |
| 2026-04-22 23:47 | 18.96657 | -78.83761 | 37012 ft | 420 kts | 102° |
| 2026-04-22 23:48 | 18.95682 | -78.77674 | 37012 ft | 421 kts | 102° |
| 2026-04-22 23:48 | 18.94706 | -78.71582 | 37012 ft | 420 kts | 102° |
| 2026-04-22 23:49 | 18.93729 | -78.65494 | 37012 ft | 421 kts | 102° |
| 2026-04-22 23:49 | 18.92748 | -78.59403 | 37013 ft | 421 kts | 102° |
| 2026-04-22 23:50 | 18.91766 | -78.53314 | 37005 ft | 421 kts | 102° |
| 2026-04-22 23:50 | 18.90783 | -78.47227 | 37006 ft | 421 kts | 102° |
| 2026-04-22 23:51 | 18.89793 | -78.41134 | 37006 ft | 421 kts | 102° |
| 2026-04-22 23:51 | 18.88808 | -78.35046 | 37006 ft | 421 kts | 102° |
| 2026-04-22 23:52 | 18.87815 | -78.28959 | 37006 ft | 420 kts | 102° |
| 2026-04-22 23:52 | 18.86826 | -78.22882 | 37007 ft | 420 kts | 102° |
| 2026-04-22 23:53 | 18.85842 | -78.16870 | 37007 ft | 420 kts | 102° |
| 2026-04-22 23:53 | 18.84848 | -78.10791 | 37007 ft | 420 kts | 102° |